Time;durP1;ratioP1;P1;durP2;ratioP2;P2;SDS_P1;SDS_P2;PMS_P1;PMS_P2;Temp;Humidity;BMP_temperature;BMP_pressure;BME280_temperature;BME280_humidity;BME280_pressure;Samples;Min_cycle;Max_cycle;Signal;HPM_P1;HPM_P2
2022/02/23 00:00:53;;;;;;;7.72;3.38;;;3.40;99.90;;;;;;5070675;28;20197;-68
2022/02/23 00:03:18;;;;;;;5.45;2.75;;;3.40;99.90;;;;;;5070289;28;20755;-69
2022/02/23 00:05:44;;;;;;;4.45;2.30;;;3.40;99.90;;;;;;5070549;28;20169;-68
2022/02/23 00:08:10;;;;;;;4.90;2.80;;;3.40;99.90;;;;;;5070534;28;20157;-68
2022/02/23 00:10:36;;;;;;;6.65;2.50;;;3.50;99.90;;;;;;5070525;28;20216;-68
2022/02/23 00:13:02;;;;;;;10.27;2.90;;;3.50;99.90;;;;;;5070485;28;20685;-69
2022/02/23 00:15:28;;;;;;;6.32;2.47;;;3.50;99.90;;;;;;5070521;28;20165;-69
2022/02/23 00:17:55;;;;;;;4.63;2.72;;;3.50;99.90;;;;;;5070353;28;20176;-68
2022/02/23 00:20:22;;;;;;;8.80;3.50;;;3.50;99.90;;;;;;5070191;28;20224;-68
2022/02/23 00:22:48;;;;;;;6.78;3.50;;;3.50;99.90;;;;;;5070373;28;20161;-69
2022/02/23 00:25:16;;;;;;;5.13;2.42;;;3.40;99.90;;;;;;5070256;28;20210;-68
2022/02/23 00:27:43;;;;;;;8.00;3.00;;;3.40;99.90;;;;;;5070172;28;20605;-69
2022/02/23 00:30:09;;;;;;;8.45;3.67;;;3.30;99.90;;;;;;5070198;28;20161;-69
2022/02/23 00:32:35;;;;;;;5.00;2.97;;;3.30;99.90;;;;;;5070122;28;20167;-68
2022/02/23 00:35:01;;;;;;;5.15;3.15;;;3.30;99.90;;;;;;5070100;28;20224;-68
2022/02/23 00:37:27;;;;;;;5.75;3.08;;;3.30;99.90;;;;;;5070034;28;20157;-69
2022/02/23 00:39:53;;;;;;;7.13;3.65;;;3.20;99.90;;;;;;5070000;28;20160;-69
2022/02/23 00:42:22;;;;;;;8.27;3.53;;;3.20;99.90;;;;;;5069918;28;20157;-68
2022/02/23 00:44:48;;;;;;;9.40;3.28;;;3.30;99.90;;;;;;5069754;28;20189;-68
2022/02/23 00:47:14;;;;;;;5.63;2.88;;;3.20;99.90;;;;;;5068512;28;20164;-68
2022/02/23 00:49:40;;;;;;;8.00;3.00;;;3.10;99.90;;;;;;5069737;28;20220;-68
2022/02/23 00:52:06;;;;;;;8.73;3.53;;;3.00;99.90;;;;;;5069733;28;20168;-68
2022/02/23 00:54:35;;;;;;;4.65;2.70;;;2.90;99.90;;;;;;5069635;28;20196;-69
2022/02/23 00:57:03;;;;;;;8.50;4.10;;;2.80;99.90;;;;;;5069669;28;20191;-68
2022/02/23 00:59:29;;;;;;;8.38;3.00;;;2.70;99.90;;;;;;5068160;28;20172;-69
2022/02/23 01:01:55;;;;;;;7.95;3.03;;;2.70;99.90;;;;;;5069565;28;20222;-68
2022/02/23 01:04:21;;;;;;;5.78;2.85;;;2.60;99.90;;;;;;5069263;28;20224;-68
2022/02/23 01:06:47;;;;;;;6.07;2.85;;;2.50;99.90;;;;;;5069611;28;20493;-69
2022/02/23 01:09:13;;;;;;;7.65;3.42;;;2.50;99.90;;;;;;5069312;28;20165;-69
2022/02/23 01:11:40;;;;;;;12.45;2.92;;;2.40;99.90;;;;;;5069341;28;20196;-69
2022/02/23 01:14:07;;;;;;;7.93;3.53;;;2.40;99.90;;;;;;5069341;28;20199;-69
2022/02/23 01:16:33;;;;;;;7.25;3.25;;;2.40;99.90;;;;;;5069359;28;20160;-69
2022/02/23 01:18:59;;;;;;;5.38;3.00;;;2.40;99.90;;;;;;5069423;28;20220;-68
2022/02/23 01:21:25;;;;;;;9.65;3.17;;;2.40;99.90;;;;;;5069192;28;20188;-68
2022/02/23 01:23:50;;;;;;;14.10;4.03;;;2.30;99.90;;;;;;5069216;28;20195;-68
2022/02/23 01:26:16;;;;;;;7.20;3.22;;;2.30;99.90;;;;;;5069207;28;20157;-69
2022/02/23 01:28:42;;;;;;;8.25;3.33;;;2.20;99.90;;;;;;5069236;28;20180;-68
2022/02/23 01:31:08;;;;;;;5.38;3.35;;;2.20;99.90;;;;;;5069276;28;20157;-69
2022/02/23 01:33:34;;;;;;;7.07;3.03;;;2.00;99.90;;;;;;5069079;28;20196;-71
2022/02/23 01:36:00;;;;;;;8.68;3.50;;;1.90;99.90;;;;;;5069121;28;20175;-68
2022/02/23 01:38:27;;;;;;;5.30;3.53;;;1.90;99.90;;;;;;5069086;28;20161;-68
2022/02/23 01:40:54;;;;;;;7.85;3.40;;;1.80;99.90;;;;;;5069148;28;20207;-68
2022/02/23 01:43:20;;;;;;;12.45;3.13;;;1.70;99.90;;;;;;5069047;28;20242;-68
2022/02/23 01:45:47;;;;;;;4.90;3.15;;;1.60;99.90;;;;;;5069016;28;20160;-68
2022/02/23 01:48:13;;;;;;;4.97;3.10;;;1.40;99.90;;;;;;5076972;28;20175;-68
2022/02/23 01:50:41;;;;;;;5.05;3.20;;;1.30;99.90;;;;;;5068986;28;20157;-68
2022/02/23 01:53:08;;;;;;;7.97;3.10;;;1.30;99.90;;;;;;5068818;28;20215;-68
2022/02/23 01:55:35;;;;;;;7.05;3.20;;;1.20;99.90;;;;;;5068824;28;20191;-68
2022/02/23 01:58:03;;;;;;;7.38;2.83;;;1.00;99.90;;;;;;5069023;28;20157;-68
2022/02/23 02:00:29;;;;;;;7.72;3.00;;;1.00;99.90;;;;;;5068803;28;20186;-68
2022/02/23 02:02:55;;;;;;;7.22;4.05;;;1.00;99.90;;;;;;5068572;28;20239;-68
2022/02/23 02:05:21;;;;;;;5.95;2.83;;;1.00;99.90;;;;;;5068815;28;20498;-68
2022/02/23 02:07:47;;;;;;;8.75;3.30;;;1.00;99.90;;;;;;5068748;28;20161;-68
2022/02/23 02:10:13;;;;;;;8.48;3.40;;;0.90;99.90;;;;;;5070243;28;20168;-68
2022/02/23 02:12:41;;;;;;;10.52;3.40;;;1.00;99.90;;;;;;5072692;28;20167;-68
2022/02/23 02:15:08;;;;;;;7.20;3.78;;;0.90;99.90;;;;;;5072786;28;20161;-68
2022/02/23 02:17:36;;;;;;;7.38;3.42;;;1.00;99.90;;;;;;5072740;28;20172;-68
2022/02/23 02:20:04;;;;;;;7.65;3.50;;;1.00;99.90;;;;;;5072689;28;20163;-68
2022/02/23 02:22:30;;;;;;;6.13;3.90;;;1.20;99.90;;;;;;5071268;28;20164;-68
2022/02/23 02:24:57;;;;;;;4.75;2.70;;;1.30;99.90;;;;;;5072473;28;20168;-68
2022/02/23 02:27:26;;;;;;;5.88;3.03;;;1.40;99.90;;;;;;5072755;28;20172;-68
2022/02/23 02:29:52;;;;;;;8.10;3.20;;;1.50;99.90;;;;;;5072451;28;20161;-68
2022/02/23 02:32:19;;;;;;;4.30;2.88;;;1.60;99.90;;;;;;5072427;28;20164;-68
2022/02/23 02:34:47;;;;;;;6.85;4.07;;;1.70;99.90;;;;;;5089531;28;20195;-68
2022/02/23 02:37:14;;;;;;;6.20;3.22;;;1.70;99.90;;;;;;5092424;28;20251;-68
2022/02/23 02:39:40;;;;;;;7.82;3.08;;;1.70;99.90;;;;;;5091169;28;20179;-68
2022/02/23 02:42:07;;;;;;;5.55;2.97;;;1.60;99.90;;;;;;5092313;28;20213;-68
2022/02/23 02:44:33;;;;;;;4.95;3.35;;;1.60;99.90;;;;;;5092132;28;20210;-68
2022/02/23 02:47:00;;;;;;;8.15;3.63;;;1.60;99.90;;;;;;5092166;28;20152;-68
2022/02/23 02:49:26;;;;;;;7.45;3.42;;;1.70;99.90;;;;;;5092254;28;20529;-68
2022/02/23 02:51:52;;;;;;;9.70;3.47;;;1.70;99.90;;;;;;5092131;28;20247;-68
2022/02/23 02:54:18;;;;;;;5.22;3.47;;;1.70;99.90;;;;;;5092112;28;20188;-68
2022/02/23 02:56:44;;;;;;;6.40;2.78;;;1.60;99.90;;;;;;5092130;28;20168;-68
2022/02/23 02:59:11;;;;;;;9.70;3.63;;;1.60;99.90;;;;;;5092070;28;20148;-68
2022/02/23 03:01:37;;;;;;;9.93;3.00;;;1.60;99.90;;;;;;5091835;28;20225;-68
2022/02/23 03:04:06;;;;;;;3.85;2.65;;;1.50;99.90;;;;;;5091469;28;20223;-68
2022/02/23 03:06:33;;;;;;;6.75;3.47;;;1.50;99.90;;;;;;5091881;28;20159;-68
2022/02/23 03:08:59;;;;;;;5.22;2.70;;;1.50;99.90;;;;;;5091831;28;20211;-68
2022/02/23 03:11:26;;;;;;;7.00;3.28;;;1.50;99.90;;;;;;5091696;28;20189;-68
2022/02/23 03:13:52;;;;;;;7.32;2.90;;;1.40;99.90;;;;;;5091560;28;20184;-68
2022/02/23 03:16:19;;;;;;;4.22;2.40;;;1.40;99.90;;;;;;5091746;28;20160;-68
2022/02/23 03:18:45;;;;;;;5.07;2.40;;;1.40;99.90;;;;;;5091759;28;20186;-68
2022/02/23 03:21:11;;;;;;;8.93;2.75;;;1.50;99.90;;;;;;5090105;28;20183;-68
2022/02/23 03:23:38;;;;;;;4.45;3.00;;;1.70;99.90;;;;;;5091444;28;20199;-69
2022/02/23 03:26:05;;;;;;;5.30;2.78;;;1.90;99.90;;;;;;5091285;28;20171;-69
2022/02/23 03:28:31;;;;;;;6.05;2.47;;;2.10;99.90;;;;;;5091491;28;20235;-68
2022/02/23 03:30:58;;;;;;;6.72;2.58;;;2.20;99.90;;;;;;5091473;28;20165;-68
2022/02/23 03:33:24;;;;;;;5.88;2.33;;;2.20;99.90;;;;;;5091221;28;20216;-68
2022/02/23 03:35:50;;;;;;;7.70;2.50;;;2.30;99.90;;;;;;5091190;28;20175;-68
2022/02/23 03:38:16;;;;;;;5.78;2.75;;;2.30;99.90;;;;;;5091112;28;20155;-68
2022/02/23 03:40:42;;;;;;;4.40;2.20;;;2.40;99.90;;;;;;5091307;28;20676;-68
2022/02/23 03:43:09;;;;;;;3.90;2.33;;;2.40;99.90;;;;;;5090987;28;20191;-68
2022/02/23 03:45:36;;;;;;;4.47;2.47;;;2.40;99.90;;;;;;5091044;28;20153;-68
2022/02/23 03:48:03;;;;;;;4.38;2.22;;;2.50;99.90;;;;;;5090978;28;20223;-68
2022/02/23 03:50:29;;;;;;;3.17;2.00;;;2.50;99.90;;;;;;5090989;28;20233;-68
2022/02/23 03:52:55;;;;;;;5.75;2.50;;;2.60;99.90;;;;;;5089367;28;20183;-68
2022/02/23 03:55:21;;;;;;;3.72;1.98;;;2.60;99.90;;;;;;5090714;28;20625;-68
2022/02/23 03:57:47;;;;;;;5.00;2.10;;;2.60;99.90;;;;;;5090872;28;20243;-68
2022/02/23 04:00:15;;;;;;;4.75;2.47;;;2.70;99.90;;;;;;5090792;28;20214;-68
2022/02/23 04:02:42;;;;;;;12.38;2.75;;;2.70;99.90;;;;;;5090490;28;20171;-68
2022/02/23 04:05:10;;;;;;;9.98;2.70;;;2.80;99.90;;;;;;5090510;28;20175;-68
2022/02/23 04:07:37;;;;;;;13.25;2.63;;;2.70;99.90;;;;;;5090543;28;20160;-68
2022/02/23 04:10:04;;;;;;;6.75;2.80;;;2.60;99.90;;;;;;5090613;28;20156;-68
2022/02/23 04:12:30;;;;;;;7.35;3.10;;;2.50;99.90;;;;;;5090384;28;20167;-68
2022/02/23 04:14:57;;;;;;;5.10;2.97;;;2.30;99.90;;;;;;5090290;28;20192;-68
2022/02/23 04:17:23;;;;;;;5.28;2.55;;;2.10;99.90;;;;;;5090303;28;20167;-68
2022/02/23 04:19:48;;;;;;;5.45;2.95;;;2.00;99.90;;;;;;5090188;28;20156;-68
2022/02/23 04:22:15;;;;;;;7.32;2.50;;;1.90;99.90;;;;;;5090325;28;20601;-68
2022/02/23 04:24:41;;;;;;;7.53;3.65;;;1.70;99.90;;;;;;5089973;28;20192;-68
2022/02/23 04:27:07;;;;;;;10.95;3.38;;;1.60;99.90;;;;;;5090316;28;20206;-68
2022/02/23 04:29:33;;;;;;;6.43;2.65;;;1.60;99.90;;;;;;5090167;28;20156;-68
2022/02/23 04:31:59;;;;;;;9.80;4.72;;;1.50;99.90;;;;;;5090038;28;20160;-68
2022/02/23 04:34:26;;;;;;;12.88;5.07;;;1.60;99.90;;;;;;5089706;28;20199;-68
2022/02/23 04:36:52;;;;;;;11.45;4.45;;;1.70;99.90;;;;;;5089796;28;20220;-70
2022/02/23 04:39:18;;;;;;;12.02;4.75;;;1.70;99.90;;;;;;5089948;28;20165;-68
2022/02/23 04:41:44;;;;;;;17.67;5.05;;;1.80;99.90;;;;;;5089704;28;20184;-68
2022/02/23 04:44:10;;;;;;;11.05;5.00;;;1.70;99.90;;;;;;5089835;28;20218;-68
2022/02/23 04:46:37;;;;;;;8.40;3.90;;;1.70;99.90;;;;;;5089828;28;20238;-68
2022/02/23 04:49:04;;;;;;;9.10;3.10;;;1.70;99.90;;;;;;5089747;28;20621;-68
2022/02/23 04:51:30;;;;;;;8.80;3.70;;;1.70;99.90;;;;;;5089370;28;20161;-68
2022/02/23 04:53:58;;;;;;;8.18;2.90;;;1.90;99.90;;;;;;5089749;28;20247;-68
2022/02/23 04:56:24;;;;;;;6.72;3.85;;;2.10;99.90;;;;;;5089583;28;20160;-68
2022/02/23 04:58:50;;;;;;;13.75;5.25;;;2.30;99.90;;;;;;5089288;28;20164;-68
2022/02/23 05:01:16;;;;;;;8.55;4.35;;;2.30;99.90;;;;;;5089376;28;20195;-68
2022/02/23 05:03:42;;;;;;;9.48;5.28;;;2.40;99.90;;;;;;5089167;28;20215;-67
2022/02/23 05:06:08;;;;;;;6.65;4.30;;;2.30;99.90;;;;;;5089574;28;20157;-68
2022/02/23 05:08:34;;;;;;;10.90;4.25;;;2.40;99.90;;;;;;5089376;28;20148;-68
2022/02/23 05:11:01;;;;;;;10.77;4.45;;;2.40;99.90;;;;;;5089178;28;20206;-69
2022/02/23 05:13:29;;;;;;;6.63;3.78;;;2.30;99.90;;;;;;5089263;28;20188;-68
2022/02/23 05:15:58;;;;;;;12.00;4.80;;;2.40;99.90;;;;;;5089279;28;20554;-67
2022/02/23 05:18:26;;;;;;;5.90;3.95;;;2.40;99.90;;;;;;5089096;28;20167;-67
2022/02/23 05:20:54;;;;;;;11.73;4.47;;;2.50;99.90;;;;;;5089188;28;20203;-68
2022/02/23 05:23:20;;;;;;;8.82;4.95;;;2.50;99.90;;;;;;5089143;28;20184;-67
2022/02/23 05:25:46;;;;;;;5.13;3.60;;;2.50;99.90;;;;;;5089142;28;20180;-67
2022/02/23 05:28:12;;;;;;;8.23;5.03;;;2.70;99.90;;;;;;5089131;28;20265;-68
2022/02/23 05:30:38;;;;;;;11.73;4.47;;;2.70;99.90;;;;;;5089233;28;20168;-68
2022/02/23 05:33:04;;;;;;;13.43;5.03;;;2.70;99.90;;;;;;5088828;28;20559;-68
2022/02/23 05:35:31;;;;;;;7.63;4.30;;;2.70;99.90;;;;;;5089172;28;20214;-68
2022/02/23 05:37:57;;;;;;;7.80;4.57;;;2.80;99.90;;;;;;5089036;28;20156;-68
2022/02/23 05:40:23;;;;;;;10.15;3.88;;;2.80;99.90;;;;;;5088835;28;20271;-68
2022/02/23 05:42:49;;;;;;;16.35;4.50;;;2.80;99.90;;;;;;5088941;28;20182;-68
2022/02/23 05:45:15;;;;;;;9.20;4.15;;;2.80;99.90;;;;;;5086822;28;20647;-68
2022/02/23 05:47:42;;;;;;;9.10;4.53;;;2.80;99.90;;;;;;5088903;28;20165;-68
2022/02/23 05:50:08;;;;;;;13.75;4.03;;;2.80;99.90;;;;;;5088749;28;20152;-67
2022/02/23 05:52:34;;;;;;;9.93;4.05;;;2.90;99.90;;;;;;5088922;28;20163;-68
2022/02/23 05:55:03;;;;;;;8.95;4.20;;;2.90;99.90;;;;;;5088714;28;20187;-68
2022/02/23 05:57:29;;;;;;;10.10;3.92;;;2.90;99.90;;;;;;5088684;28;20178;-68
2022/02/23 05:59:55;;;;;;;11.45;3.67;;;2.90;99.90;;;;;;5087810;28;20164;-67
2022/02/23 06:02:21;;;;;;;8.23;3.50;;;3.10;99.90;;;;;;5088616;28;20152;-67
2022/02/23 06:04:47;;;;;;;10.48;3.70;;;3.10;99.90;;;;;;5088432;28;20231;-67
2022/02/23 06:07:13;;;;;;;7.85;3.60;;;3.20;99.90;;;;;;5088640;28;20145;-67
2022/02/23 06:09:39;;;;;;;7.32;4.25;;;3.20;99.90;;;;;;5088687;28;20167;-68
2022/02/23 06:12:05;;;;;;;7.82;4.22;;;3.20;99.90;;;;;;5088595;28;20170;-68
2022/02/23 06:14:31;;;;;;;10.27;4.80;;;3.20;99.90;;;;;;5088443;28;20188;-68
2022/02/23 06:16:58;;;;;;;9.95;6.05;;;3.20;99.90;;;;;;5088751;28;20166;-69
2022/02/23 06:19:24;;;;;;;8.57;4.35;;;3.30;99.90;;;;;;5088664;28;20258;-69
2022/02/23 06:21:50;;;;;;;11.60;4.65;;;3.30;99.90;;;;;;5088412;28;20192;-69
2022/02/23 06:24:16;;;;;;;14.10;4.68;;;3.30;99.90;;;;;;5088646;28;20192;-68
2022/02/23 06:26:43;;;;;;;7.88;3.95;;;3.30;99.90;;;;;;5088691;28;20160;-69
2022/02/23 06:29:09;;;;;;;8.70;4.80;;;3.40;99.90;;;;;;5088394;28;20212;-68
2022/02/23 06:31:35;;;;;;;13.35;4.82;;;3.40;99.90;;;;;;5088518;28;20176;-68
2022/02/23 06:34:02;;;;;;;6.72;4.10;;;3.40;99.90;;;;;;5088385;28;20195;-69
2022/02/23 06:36:28;;;;;;;11.70;4.20;;;3.50;99.90;;;;;;5088359;28;20163;-69
2022/02/23 06:38:54;;;;;;;7.40;3.75;;;3.50;99.90;;;;;;5088434;28;20219;-68
2022/02/23 06:41:24;;;;;;;12.15;4.68;;;3.50;99.90;;;;;;5088191;28;20283;-69
2022/02/23 06:43:51;;;;;;;7.93;4.90;;;3.60;99.90;;;;;;5088113;28;20184;-69
2022/02/23 06:46:18;;;;;;;10.85;3.72;;;3.60;99.90;;;;;;5088261;28;20156;-69
2022/02/23 06:48:44;;;;;;;13.07;4.75;;;3.70;99.90;;;;;;5088004;28;20156;-69
2022/02/23 06:51:16;;;;;;;9.27;4.68;;;3.70;99.90;;;;;;5076827;28;20173;-69
2022/02/23 06:53:42;;;;;;;10.55;4.45;;;3.80;99.90;;;;;;5068159;28;20199;-70
2022/02/23 06:56:08;;;;;;;9.80;4.22;;;3.80;99.90;;;;;;5073667;28;20192;-69
2022/02/23 06:58:46;;;;;;;7.82;4.53;;;3.90;99.90;;;;;;5091728;28;20170;-68
2022/02/23 07:01:16;;;;;;;13.35;4.82;;;3.90;99.90;;;;;;5091686;28;20206;-69
2022/02/23 07:03:44;;;;;;;11.40;5.32;;;4.00;99.90;;;;;;5091375;28;20220;-69
2022/02/23 07:06:11;;;;;;;16.08;5.57;;;4.10;99.90;;;;;;5091953;28;20157;-69
2022/02/23 07:08:37;;;;;;;15.15;6.85;;;4.10;99.90;;;;;;5091549;28;20148;-69
2022/02/23 07:11:04;;;;;;;19.42;6.05;;;4.10;99.90;;;;;;5091612;28;20164;-69
2022/02/23 07:13:29;;;;;;;13.07;4.38;;;4.10;99.90;;;;;;5085241;28;20196;-69
2022/02/23 07:15:55;;;;;;;15.05;5.13;;;4.20;99.90;;;;;;5078170;28;20180;-70
2022/02/23 07:18:21;;;;;;;13.90;4.25;;;4.30;99.90;;;;;;5090629;28;20191;-69
2022/02/23 07:20:47;;;;;;;16.33;4.82;;;4.50;99.90;;;;;;5074350;28;20196;-69
2022/02/23 07:23:13;;;;;;;12.40;5.75;;;4.60;99.90;;;;;;5069526;28;20244;-69
2022/02/23 07:25:39;;;;;;;10.60;4.75;;;4.80;99.90;;;;;;5086652;28;20345;-69
2022/02/23 07:28:05;;;;;;;18.77;5.53;;;4.90;99.90;;;;;;5091086;28;20179;-69
2022/02/23 07:30:31;;;;;;;13.98;5.38;;;4.90;99.90;;;;;;5091290;28;20168;-69
2022/02/23 07:32:57;;;;;;;10.15;4.78;;;4.80;99.90;;;;;;5091181;28;20192;-69
2022/02/23 07:35:23;;;;;;;11.90;4.97;;;4.80;99.90;;;;;;5091375;28;20168;-68
2022/02/23 07:37:52;;;;;;;17.25;5.97;;;4.70;99.90;;;;;;5090918;28;20167;-68
2022/02/23 07:40:20;;;;;;;13.98;5.07;;;4.60;99.90;;;;;;5090843;28;20243;-69
2022/02/23 07:42:47;;;;;;;7.70;5.00;;;4.70;99.90;;;;;;5090387;28;20554;-69
2022/02/23 07:45:13;;;;;;;15.55;5.18;;;4.90;99.90;;;;;;5090883;28;20160;-69
2022/02/23 07:47:39;;;;;;;10.38;4.10;;;5.00;99.90;;;;;;5090834;28;20159;-70
2022/02/23 07:50:11;;;;;;;11.95;4.72;;;5.00;99.90;;;;;;5090763;28;20164;-69
2022/02/23 07:52:39;;;;;;;6.35;3.65;;;5.10;99.90;;;;;;5090839;28;20163;-69
2022/02/23 07:55:07;;;;;;;9.63;3.05;;;5.20;99.90;;;;;;5090592;28;20187;-69
2022/02/23 07:57:33;;;;;;;7.20;2.97;;;5.40;99.90;;;;;;5090501;28;20171;-69
2022/02/23 07:59:59;;;;;;;8.77;2.92;;;5.40;99.90;;;;;;5090858;28;20164;-69
2022/02/23 08:02:31;;;;;;;5.43;3.13;;;5.50;99.90;;;;;;5090596;28;20157;-69
2022/02/23 08:04:57;;;;;;;13.27;4.32;;;5.60;99.90;;;;;;5069920;28;20205;-68
2022/02/23 08:07:23;;;;;;;5.57;3.15;;;5.70;99.90;;;;;;5067468;28;20208;-69
2022/02/23 08:09:49;;;;;;;9.20;3.05;;;5.40;99.90;;;;;;5048881;28;20165;-69
2022/02/23 08:12:16;;;;;;;6.13;3.05;;;5.40;99.90;;;;;;5050282;28;20185;-69
2022/02/23 08:14:42;;;;;;;6.80;3.85;;;5.60;99.90;;;;;;5056762;28;20178;-70
2022/02/23 08:19:53;;;;;;;5.97;4.13;;;5.70;99.90;;;;;;5050283;28;20253;-69
2022/02/23 08:22:19;;;;;;;8.65;3.90;;;5.60;99.90;;;;;;5056191;28;20554;-69
2022/02/23 08:24:49;;;;;;;14.30;6.53;;;5.50;99.90;;;;;;5070941;28;20306;-68
2022/02/23 08:27:20;;;;;;;12.77;6.20;;;5.50;99.90;;;;;;5068203;28;20194;-69
2022/02/23 08:29:47;;;;;;;12.15;5.53;;;5.50;99.90;;;;;;5068281;28;20240;-69
2022/02/23 08:32:15;;;;;;;5.30;3.38;;;5.70;99.90;;;;;;5067353;28;20172;-69
2022/02/23 08:34:45;;;;;;;10.63;3.88;;;6.00;99.90;;;;;;5058302;28;20180;-69
2022/02/23 08:37:12;;;;;;;7.30;4.07;;;6.40;99.90;;;;;;5050351;28;20200;-68
2022/02/23 08:39:40;;;;;;;4.03;2.88;;;7.20;99.90;;;;;;5049294;28;20189;-68
2022/02/23 08:42:09;;;;;;;7.57;2.90;;;7.90;99.90;;;;;;5049288;28;20665;-68
2022/02/23 08:44:35;;;;;;;6.10;3.53;;;7.80;99.90;;;;;;5049391;28;20193;-68
2022/02/23 08:47:01;;;;;;;11.45;3.22;;;8.10;99.90;;;;;;5049331;28;20157;-68
2022/02/23 08:49:28;;;;;;;11.70;3.55;;;8.70;99.90;;;;;;5065446;28;20279;-68
2022/02/23 08:52:00;;;;;;;7.43;2.78;;;10.20;99.90;;;;;;5065939;28;20177;-68
2022/02/23 08:54:26;;;;;;;11.48;3.55;;;10.00;99.90;;;;;;5051647;28;20174;-68
2022/02/23 08:56:52;;;;;;;7.85;3.85;;;9.70;99.90;;;;;;5049032;28;20193;-68
2022/02/23 08:59:18;;;;;;;5.65;2.78;;;9.40;99.90;;;;;;5049087;28;20558;-68
2022/02/23 09:01:44;;;;;;;6.30;2.15;;;9.60;99.90;;;;;;5048868;28;20229;-70
2022/02/23 09:04:10;;;;;;;11.00;3.13;;;9.20;99.90;;;;;;5062082;28;20286;-69
2022/02/23 09:06:39;;;;;;;8.27;3.70;;;9.10;99.90;;;;;;5069066;28;20161;-68
2022/02/23 09:09:11;;;;;;;10.90;3.42;;;8.80;99.90;;;;;;5068734;28;20228;-68
2022/02/23 09:11:37;;;;;;;22.10;4.57;;;9.80;99.90;;;;;;5068830;28;20190;-68
2022/02/23 09:14:04;;;;;;;12.88;4.30;;;10.10;99.90;;;;;;5068719;28;20156;-68
2022/02/23 09:16:31;;;;;;;12.43;4.20;;;10.50;99.90;;;;;;5067331;28;20263;-68
2022/02/23 09:18:57;;;;;;;8.65;4.30;;;10.80;99.90;;;;;;5068556;28;20564;-68
2022/02/23 09:21:23;;;;;;;11.82;5.07;;;10.00;99.90;;;;;;5068336;28;20188;-69
2022/02/23 09:23:49;;;;;;;11.48;4.47;;;9.40;99.90;;;;;;5068513;28;20156;-68
2022/02/23 09:26:18;;;;;;;13.27;5.30;;;9.30;99.90;;;;;;5081604;28;20169;-69
2022/02/23 09:28:44;;;;;;;15.85;5.68;;;9.30;99.90;;;;;;5068193;28;20184;-69
2022/02/23 09:31:12;;;;;;;14.60;4.70;;;10.30;99.90;;;;;;5074349;28;20167;-68
2022/02/23 09:33:38;;;;;;;18.02;5.53;;;10.40;99.90;;;;;;5108781;28;20159;-68
2022/02/23 09:36:04;;;;;;;9.65;4.30;;;11.00;99.90;;;;;;5089296;28;20196;-68
2022/02/23 09:38:31;;;;;;;11.88;4.75;;;11.40;99.90;;;;;;5068551;28;20200;-68
2022/02/23 09:41:03;;;;;;;23.95;7.35;;;11.30;99.90;;;;;;5073346;28;20187;-69
2022/02/23 09:43:30;;;;;;;23.73;5.45;;;13.50;99.90;;;;;;5088521;28;20155;-69
2022/02/23 09:45:56;;;;;;;12.77;4.55;;;15.80;99.90;;;;;;5088346;28;20156;-69
2022/02/23 09:48:25;;;;;;;9.40;2.83;;;16.30;99.90;;;;;;5088447;28;20195;-68
2022/02/23 09:50:52;;;;;;;8.85;2.88;;;15.60;99.90;;;;;;5088400;28;20172;-69
2022/02/23 09:53:20;;;;;;;5.50;1.55;;;17.00;99.90;;;;;;5081932;28;20164;-68
2022/02/23 09:55:46;;;;;;;3.78;2.00;;;18.10;99.90;;;;;;5076733;28;20193;-69
2022/02/23 09:58:12;;;;;;;1.60;1.00;;;16.70;99.90;;;;;;5076268;28;20206;-68
2022/02/23 10:00:38;;;;;;;8.43;1.10;;;16.90;99.90;;;;;;5070813;28;20189;-68
2022/02/23 10:03:08;;;;;;;3.22;0.40;;;15.50;99.70;;;;;;5071182;28;20239;-68
2022/02/23 10:05:46;;;;;;;1.65;0.30;;;15.00;99.80;;;;;;5083965;28;20192;-69
2022/02/23 10:08:12;;;;;;;1.08;0.20;;;15.50;98.70;;;;;;5088483;28;20521;-67
2022/02/23 10:10:43;;;;;;;1.38;0.60;;;14.50;99.70;;;;;;5088083;28;20187;-66
2022/02/23 10:13:10;;;;;;;2.75;0.40;;;14.50;98.60;;;;;;5088405;28;20156;-67
2022/02/23 10:15:44;;;;;;;1.50;0.35;;;14.90;98.70;;;;;;5087815;28;20188;-67
2022/02/23 10:18:15;;;;;;;0.75;0.30;;;15.20;97.60;;;;;;5088545;28;20187;-67
2022/02/23 10:20:42;;;;;;;3.85;0.50;;;14.80;98.30;;;;;;5081206;28;20226;-67
2022/02/23 10:23:18;;;;;;;0.35;0.32;;;14.80;98.00;;;;;;5078392;28;20175;-67
2022/02/23 10:25:58;;;;;;;0.93;0.38;;;14.60;97.80;;;;;;5087948;28;20192;-67
2022/02/23 10:28:27;;;;;;;0.20;0.20;;;14.80;97.80;;;;;;5068041;28;20157;-67
2022/02/23 10:30:59;;;;;;;1.40;0.30;;;14.70;97.00;;;;;;5069042;28;20165;-67
2022/02/23 10:33:33;;;;;;;0.47;0.32;;;15.30;96.50;;;;;;5072012;28;20188;-67
2022/02/23 10:36:11;;;;;;;2.60;0.30;;;14.20;95.20;;;;;;5091560;28;20555;-66
2022/02/23 10:38:45;;;;;;;1.77;0.40;;;13.60;95.50;;;;;;5091692;28;20248;-67
2022/02/23 10:41:30;;;;;;;0.47;0.30;;;13.80;95.80;;;;;;5091855;28;20184;-67
2022/02/23 10:43:56;;;;;;;0.88;0.35;;;14.30;94.90;;;;;;5091670;28;20538;-67
2022/02/23 10:46:23;;;;;;;0.35;0.20;;;13.90;94.40;;;;;;5091449;28;20227;-68
2022/02/23 10:48:53;;;;;;;0.17;0.17;;;14.70;95.00;;;;;;5086152;28;20166;-67
2022/02/23 10:51:36;;;;;;;1.58;1.08;;;15.00;93.30;;;;;;5083370;28;20172;-67
2022/02/23 10:54:10;;;;;;;3.08;1.55;;;14.50;93.80;;;;;;5090589;28;20217;-67
2022/02/23 10:56:44;;;;;;;2.28;1.08;;;14.30;94.20;;;;;;5071418;28;20196;-67
2022/02/23 10:59:19;;;;;;;3.90;2.55;;;13.40;95.10;;;;;;5071248;28;20185;-68
2022/02/23 11:01:48;;;;;;;4.55;0.82;;;13.60;93.90;;;;;;5069918;28;20531;-68
2022/02/23 11:04:15;;;;;;;1.02;0.45;;;14.20;94.10;;;;;;5075813;28;20224;-68
2022/02/23 11:06:48;;;;;;;10.48;1.58;;;14.20;93.80;;;;;;5091108;28;20191;-67
2022/02/23 11:09:14;;;;;;;2.95;0.77;;;14.70;93.30;;;;;;5090969;28;20202;-67
2022/02/23 11:11:41;;;;;;;0.98;0.45;;;14.70;93.00;;;;;;5087478;28;20164;-67
2022/02/23 11:14:08;;;;;;;3.13;0.50;;;14.20;93.40;;;;;;5070119;28;20165;-67
2022/02/23 11:16:35;;;;;;;3.05;1.25;;;14.40;93.90;;;;;;5070986;28;20188;-68
2022/02/23 11:19:04;;;;;;;2.42;0.90;;;14.90;93.40;;;;;;5071159;28;20161;-68
2022/02/23 11:21:34;;;;;;;2.47;0.90;;;15.00;93.00;;;;;;5085330;28;20191;-67
2022/02/23 11:24:03;;;;;;;0.57;0.30;;;14.10;93.40;;;;;;5090925;28;20149;-68
2022/02/23 11:26:32;;;;;;;0.95;0.40;;;14.00;93.20;;;;;;5090928;28;20188;-68
2022/02/23 11:29:16;;;;;;;0.93;0.40;;;14.00;93.20;;;;;;5091217;28;20156;-67
2022/02/23 11:31:48;;;;;;;0.50;0.25;;;14.30;93.10;;;;;;5091531;28;20161;-67
2022/02/23 11:34:16;;;;;;;1.00;0.68;;;14.90;92.00;;;;;;5077339;28;20172;-68
2022/02/23 11:36:44;;;;;;;5.70;0.60;;;14.70;92.40;;;;;;5071066;28;20197;-68
2022/02/23 11:39:14;;;;;;;1.90;0.55;;;14.40;93.00;;;;;;5085175;28;20172;-68
2022/02/23 11:41:47;;;;;;;0.20;0.20;;;14.70;92.60;;;;;;5090758;28;20188;-68
2022/02/23 11:44:20;;;;;;;1.27;0.40;;;14.80;92.70;;;;;;5090172;28;20163;-67
2022/02/23 11:46:53;;;;;;;1.92;0.57;;;14.80;92.80;;;;;;5090823;28;20153;-67
2022/02/23 11:49:28;;;;;;;0.93;0.30;;;15.10;91.60;;;;;;5090457;28;20188;-68
2022/02/23 11:52:14;;;;;;;2.83;0.25;;;15.60;92.10;;;;;;5090712;28;20166;-67
2022/02/23 11:54:51;;;;;;;3.20;0.55;;;15.30;91.60;;;;;;5090771;28;20278;-68
2022/02/23 11:57:52;;;;;;;0.98;0.32;;;15.60;93.00;;;;;;5090748;28;20160;-68
2022/02/23 12:00:18;;;;;;;4.88;0.60;;;15.30;91.50;;;;;;5090526;28;20184;-68
2022/02/23 12:03:28;;;;;;;1.83;0.40;;;15.50;91.60;;;;;;5090539;28;20769;-67
2022/02/23 12:06:09;;;;;;;3.70;0.55;;;15.10;91.70;;;;;;5088781;28;20187;-67
2022/02/23 12:08:46;;;;;;;2.83;0.40;;;15.10;91.50;;;;;;5088526;28;20242;-68
2022/02/23 12:11:17;;;;;;;3.70;1.05;;;14.80;91.60;;;;;;5088370;28;20225;-67
2022/02/23 12:13:58;;;;;;;0.55;0.30;;;15.20;91.00;;;;;;5088451;28;20159;-67
2022/02/23 12:16:38;;;;;;;0.63;0.20;;;15.20;91.30;;;;;;5088242;28;20183;-68
2022/02/23 12:19:06;;;;;;;5.25;0.52;;;15.20;91.20;;;;;;5088016;28;20206;-68
2022/02/23 12:21:38;;;;;;;0.85;0.20;;;14.90;92.00;;;;;;5085117;28;20297;-68
2022/02/23 12:24:05;;;;;;;0.22;0.20;;;15.40;91.20;;;;;;5087691;28;20179;-68
2022/02/23 12:26:38;;;;;;;0.93;0.30;;;15.80;91.80;;;;;;5087682;28;20171;-68
2022/02/23 12:29:09;;;;;;;0.77;0.30;;;15.60;90.90;;;;;;5087807;28;20233;-68
2022/02/23 12:31:35;;;;;;;2.88;0.80;;;15.20;91.10;;;;;;5087666;28;20167;-69
2022/02/23 12:34:07;;;;;;;1.90;0.70;;;15.60;90.90;;;;;;5087465;28;20184;-68
2022/02/23 12:36:40;;;;;;;1.67;0.77;;;16.20;90.60;;;;;;5087942;28;20266;-68
2022/02/23 12:39:12;;;;;;;2.72;0.95;;;15.30;91.00;;;;;;5087880;28;20191;-68
2022/02/23 12:41:38;;;;;;;0.15;0.13;;;14.10;91.70;;;;;;5082902;28;20203;-68
2022/02/23 12:44:11;;;;;;;2.42;1.17;;;13.50;92.10;;;;;;5075360;28;20196;-68
2022/02/23 12:46:40;;;;;;;1.80;0.50;;;13.70;92.70;;;;;;5070386;28;20153;-69
2022/02/23 12:49:06;;;;;;;0.93;0.40;;;13.40;92.70;;;;;;5087824;28;20195;-69
2022/02/23 12:51:33;;;;;;;2.78;0.52;;;13.50;93.60;;;;;;5089292;28;20181;-69
2022/02/23 12:54:03;;;;;;;4.35;0.65;;;13.40;92.80;;;;;;5088927;28;20167;-69
2022/02/23 12:56:48;;;;;;;1.52;0.60;;;13.00;93.20;;;;;;5089086;28;20152;-70